Aberdeen Regional Airport Aberdeen US
ICAO: KABR
IATA: ABR
Category: Medium
Scheduled Services: Yes

Elevation: 1302 ft
TransAlt. 18000 ft.

Airport Communications:
ASOS:125.875
MINNEAPOLIS CNTR:120.6
CTAF:122.7
HURON RDO:122.4
UNICOM:122.95

KABR Zoom In..

If you have problems with the map follow the link
https://www.worldairports.se/pages/airport.php?
ICAO=KABR

Runways:

(A) RW 13 length 6901 ft width 100 ft
---- / hdg 128

(B) RW 17 length 5500 ft width 100 ft
---- / hdg 173

(C) RW 31 length 6901 ft width 100 ft
ILS 109.90 / hdg 308

(D) RW 35 length 5500 ft width 100 ft
---- / hdg 353

Location; KABR
Day. 20 / Time. 08.53 Zulu
* Altimeter: 30.65
* Temperature: -21° c. 5.8°f.
* Wind from: 290° Speed 03 kn.
Dewpoint: -25° c.
Visibility: 10 Statute Miles.
Clouds: Clear (automated report).

KABR 200853Z AUTO 29003KT 10SM CLR M21/M25 A3065 RMK AO2 SLP419 T12111250 53003


Wind From 290°
Speed 03 kn.

 
 
jpsmedia worldairports.se 2020   terms of use